Weather History for KRDK - October, 2012

Change the Weather History Date:

Thursday, October 4, 2012

  Actual Average Record
Temperature  
Mean Temperature 55 °F -  
Max Temperature 62 °F 71 °F 89 °F (2005)
Min Temperature 48 °F 43 °F 26 °F (1980)
Degree Days  
Heating Degree Days 10    
Growing Degree Days 5 (Base 50)    
Moisture  
Dew Point 35 °F    
Average Humidity 50    
Maximum Humidity 76    
Minimum Humidity 29    
Precipitation  
Precipitation 0.00 in - - ()
Sea Level Pressure  
Sea Level Pressure 30.17 in    
Wind  
Wind Speed 10 mph (NW)    
Max Wind Speed 20 mph    
Max Gust Speed 31 mph    
Visibility 10 miles    
Events Rain    
Averages and records for this station are not official NWS values.
T = Trace of Precipitation, MM = Missing Value Source: NWS Daily Summary

Daily Weather History Graph

Daily Weather History Graph

Search for Another Location

Airport or City:

Trip Planner

Search our weather history database for the weather conditions in past years. The results will help you decide how hot, cold, wet, or windy it might be!

Date:

Astronomy

Oct. 04, 2012 Rise Set
Actual Time 7:21 AM CDT 6:57 PM CDT
Civil Twilight 6:53 AM CDT 7:24 PM CDT
Nautical Twilight 6:22 AM CDT 7:56 PM CDT
Astronomical Twilight 5:49 AM CDT 8:28 PM CDT
Moon 9:31 PM CDT (10/4) 11:41 AM CDT (10/4)
Length of Visible Light 12h 30m
Length of Day
11h 35m
Waning Gibbous, 82% of the Moon is Illuminated
Oct 4
Waning Gibbous
Oct 8
Last Quarter
Oct 15
New
Oct 21
First Quarter
Oct 29
Full

Hourly Weather History & Observations

Time (CDT) Temp. Dew Point Humidity Pressure Visibility Wind Dir Wind Speed Gust Speed Precip Events Conditions
12:15 AM 62.6 °F 42.8 °F 48% 29.92 in 10.0 mi Calm Calm - N/A   Scattered Clouds
12:35 AM 62.6 °F 44.6 °F 52% 29.92 in 10.0 mi SSW 3.5 mph - N/A   Overcast
12:55 AM 62.6 °F 44.6 °F 52% 29.92 in 10.0 mi SSW 5.8 mph - N/A   Scattered Clouds
1:15 AM 62.6 °F 44.6 °F 52% 29.93 in 10.0 mi SW 5.8 mph - N/A   Clear
1:35 AM 62.6 °F 44.6 °F 52% 29.95 in 10.0 mi West 3.5 mph - N/A   Scattered Clouds
1:55 AM 57.2 °F 44.6 °F 63% 29.96 in 10.0 mi SSW 3.5 mph - N/A   Scattered Clouds
2:15 AM 59.0 °F 42.8 °F 55% 29.98 in 10.0 mi NW 9.2 mph - N/A   Scattered Clouds
2:35 AM 59.0 °F 42.8 °F 55% 29.99 in 10.0 mi NW 18.4 mph 23.0 mph N/A   Scattered Clouds
2:55 AM 57.2 °F 41.0 °F 55% 30.01 in 10.0 mi NW 16.1 mph 24.2 mph N/A   Scattered Clouds
3:15 AM 55.4 °F 41.0 °F 58% 30.02 in 10.0 mi NW 19.6 mph 29.9 mph N/A   Clear
3:35 AM 55.4 °F 41.0 °F 58% 30.03 in 10.0 mi NW 19.6 mph 31.1 mph N/A   Clear
3:55 AM 55.4 °F 41.0 °F 58% 30.02 in 10.0 mi NNW 16.1 mph 23.0 mph N/A   Clear
4:15 AM 55.4 °F 41.0 °F 58% 30.04 in 10.0 mi NW 16.1 mph 20.7 mph N/A   Scattered Clouds
4:35 AM 55.4 °F 42.8 °F 63% 30.05 in 10.0 mi NNW 11.5 mph 19.6 mph N/A Rain Light Rain
4:55 AM 53.6 °F 42.8 °F 67% 30.05 in 10.0 mi North 13.8 mph - N/A   Clear
5:15 AM 53.6 °F 42.8 °F 67% 30.09 in 10.0 mi WNW 8.1 mph - N/A   Clear
5:35 AM 53.6 °F 42.8 °F 67% 30.10 in 10.0 mi WNW 9.2 mph - N/A   Mostly Cloudy
5:55 AM 53.6 °F 44.6 °F 72% 30.10 in 10.0 mi NW 12.7 mph 18.4 mph N/A   Light Drizzle
6:15 AM 51.8 °F 44.6 °F 76% 30.12 in 10.0 mi NW 11.5 mph 19.6 mph N/A   Overcast
6:35 AM 51.8 °F 42.8 °F 71% 30.13 in 10.0 mi NW 9.2 mph - N/A   Mostly Cloudy
6:55 AM 50.0 °F 41.0 °F 71% 30.13 in 10.0 mi NW 11.5 mph 17.3 mph N/A   Scattered Clouds
7:15 AM 48.2 °F 39.2 °F 71% 30.13 in 10.0 mi NNW 9.2 mph 17.3 mph N/A   Clear
7:35 AM 48.2 °F 41.0 °F 76% 30.16 in 10.0 mi NW 6.9 mph - N/A   Clear
7:55 AM 48.2 °F 41.0 °F 76% 30.16 in 10.0 mi NW 9.2 mph - N/A   Clear
8:15 AM 48.2 °F 41.0 °F 76% 30.15 in 10.0 mi NW 9.2 mph - N/A   Clear
8:35 AM 50.0 °F 41.0 °F 71% 30.17 in 10.0 mi NW 10.4 mph - N/A   Clear
8:55 AM 48.2 °F 39.2 °F 71% 30.17 in 10.0 mi NW 16.1 mph 19.6 mph N/A   Clear
9:15 AM 48.2 °F 37.4 °F 66% 30.18 in 10.0 mi NW 13.8 mph 26.5 mph N/A   Clear
9:35 AM 48.2 °F 37.4 °F 66% 30.21 in 10.0 mi NW 10.4 mph 19.6 mph N/A   Clear
9:55 AM 50.0 °F 37.4 °F 62% 30.21 in 10.0 mi NNW 11.5 mph 18.4 mph N/A   Scattered Clouds
10:15 AM 48.2 °F 35.6 °F 62% 30.22 in 10.0 mi NNW 15.0 mph 24.2 mph N/A   Mostly Cloudy
10:35 AM 48.2 °F 37.4 °F 66% 30.24 in 10.0 mi NW 11.5 mph - N/A   Overcast
10:55 AM 50.0 °F 35.6 °F 58% 30.24 in 10.0 mi NW 15.0 mph 20.7 mph N/A   Overcast
11:15 AM 51.8 °F 37.4 °F 58% 30.25 in 10.0 mi NW 15.0 mph - N/A   Mostly Cloudy
11:35 AM 51.8 °F 35.6 °F 54% 30.26 in 10.0 mi NW 15.0 mph 19.6 mph N/A   Mostly Cloudy
11:55 AM 53.6 °F 35.6 °F 51% 30.24 in 10.0 mi NNW 15.0 mph 19.6 mph N/A   Mostly Cloudy
12:15 PM 53.6 °F 35.6 °F 51% 30.25 in 10.0 mi NW 15.0 mph 19.6 mph N/A   Scattered Clouds
12:35 PM 55.4 °F 35.6 °F 47% 30.25 in 10.0 mi NNW 13.8 mph 19.6 mph N/A   Clear
12:55 PM 57.2 °F 33.8 °F 41% 30.25 in 10.0 mi NNW 13.8 mph 23.0 mph N/A   Clear
1:35 PM 57.2 °F 33.8 °F 41% 30.25 in 10.0 mi NW 17.3 mph 23.0 mph N/A   Clear
1:55 PM 57.2 °F 33.8 °F 41% 30.24 in 10.0 mi WNW 15.0 mph 21.9 mph N/A   Clear
2:15 PM 57.2 °F 33.8 °F 41% 30.24 in 10.0 mi NW 12.7 mph 21.9 mph N/A   Clear
2:35 PM 59.0 °F 32.0 °F 36% 30.24 in 10.0 mi NW 13.8 mph 23.0 mph N/A   Clear
2:55 PM 59.0 °F 30.2 °F 34% 30.23 in 10.0 mi NNW 11.5 mph 20.7 mph N/A   Clear
3:15 PM 60.8 °F 28.4 °F 29% 30.22 in 10.0 mi NNW 16.1 mph 20.7 mph N/A   Clear
3:35 PM 60.8 °F 30.2 °F 31% 30.22 in 10.0 mi North 12.7 mph 21.9 mph N/A   Clear
3:55 PM 60.8 °F 28.4 °F 29% 30.22 in 10.0 mi NNW 11.5 mph 20.7 mph N/A   Clear
4:15 PM 60.8 °F 28.4 °F 29% 30.22 in 10.0 mi NW 13.8 mph - N/A   Clear
4:35 PM 57.2 °F 28.4 °F 33% 30.23 in 10.0 mi NNW 16.1 mph 20.7 mph N/A   Clear
4:55 PM 57.2 °F 28.4 °F 33% 30.23 in 10.0 mi NNW 10.4 mph - N/A   Clear
5:15 PM 60.8 °F 28.4 °F 29% 30.23 in 10.0 mi NNW 9.2 mph - N/A   Clear
5:35 PM 60.8 °F 28.4 °F 29% 30.22 in 7.0 mi NNW 11.5 mph 17.3 mph N/A   Clear
5:55 PM 57.2 °F 28.4 °F 33% 30.23 in 7.0 mi NNW 9.2 mph 16.1 mph N/A   Clear
6:15 PM 57.2 °F 28.4 °F 33% 30.23 in 10.0 mi NW 11.5 mph - N/A   Clear
6:35 PM 55.4 °F 28.4 °F 36% 30.24 in 10.0 mi NW 8.1 mph - N/A   Clear
6:55 PM 55.4 °F 28.4 °F 36% 30.25 in 10.0 mi NNW 6.9 mph - N/A   Clear
7:15 PM 53.6 °F 28.4 °F 38% 30.25 in 10.0 mi NNW 6.9 mph - N/A   Clear
7:35 PM 53.6 °F 30.2 °F 41% 30.26 in 10.0 mi NNW 5.8 mph - N/A   Scattered Clouds
7:55 PM 53.6 °F 30.2 °F 41% 30.27 in 10.0 mi NNW 5.8 mph - N/A   Scattered Clouds
8:15 PM 53.6 °F 30.2 °F 41% 30.28 in 10.0 mi NW 4.6 mph - N/A   Scattered Clouds
8:35 PM 53.6 °F 30.2 °F 41% 30.25 in 10.0 mi NNW 8.1 mph - N/A   Clear
8:55 PM 53.6 °F 28.4 °F 38% 30.26 in 10.0 mi NNW 10.4 mph - N/A   Clear
9:15 PM 53.6 °F 28.4 °F 38% 30.26 in 10.0 mi NNW 9.2 mph - N/A   Scattered Clouds
9:35 PM 51.8 °F 28.4 °F 41% 30.27 in 10.0 mi NNW 6.9 mph - N/A   Scattered Clouds
9:55 PM 51.8 °F 28.4 °F 41% 30.28 in 10.0 mi NNW 9.2 mph - N/A   Clear
10:15 PM 51.8 °F 28.4 °F 41% 30.28 in 10.0 mi North 8.1 mph - N/A   Scattered Clouds
10:35 PM 51.8 °F 28.4 °F 41% 30.29 in 10.0 mi North 10.4 mph - N/A   Scattered Clouds
10:55 PM 51.8 °F 28.4 °F 41% 30.29 in 10.0 mi North 12.7 mph 16.1 mph N/A   Scattered Clouds
11:15 PM 50.0 °F 28.4 °F 43% 30.28 in 10.0 mi NNW 10.4 mph 16.1 mph N/A   Scattered Clouds
11:35 PM 50.0 °F 28.4 °F 43% 30.29 in 10.0 mi North 13.8 mph 18.4 mph N/A   Scattered Clouds
11:55 PM 50.0 °F 28.4 °F 43% 30.28 in 10.0 mi North 11.5 mph - N/A   Mostly Cloudy